Terminal Aerodrome Forecast
Issued by NWS Cleveland, OH

Home | Current Version | Previous Version | Graphics & Text | Print | Product List | Glossary On
Versions: 1 2 3 4 5 6 7 8 9 10 11 12 13 14 15 16 17 18 19 20 21 22
000
FTUS41 KCLE 241900 AAA
TAFYNG
TAF AMD
KYNG 241914Z 2419/2518 11007KT P6SM BKN035
     FM242300 11005KT P6SM SCT035
     FM251000 13005KT 4SM BR SCT080
     FM251500 13007KT P6SM BKN015=

USA.gov is the U.S. government's official web portal to all federal, state and local government web resources and services.